Blende, Colorado
Current Conditions -  °F | °C
As of 6:36 AM on Sunday 23 Nov 2014 (Local Time) from KPUB Reporting Station
Overcast Overcast  
Wind Chill: 28°   Ceiling: 5500
Heat Index: 39°   Visibility: 10mi
Dew Point: 26°   Wind: 24mph
Humidity: 60%   Direction: 10°N
Pressure: 29.7"   Gusts: 30mph
Location:  38.2482°N, 104.47°W
Report Text: KPUB 231336Z 01021G26KT 10SM FEW016 BKN055 OVC100 04/M03 A2970 RMK AO2 PK WND 01035/1257 RAE11SNB11E30 P0000 T00391033
Loading
Personal Weather Stations






























Interactive Weather Map New forecast layout! Learn more

10-Day Weather Forecast

Advertisements
Track Severe Weather on mobile